Wednesday, September 28, 2016, 7:52 AM EDT

KLKU, Louisa, Louisa County Airport/freeman Field

Location: Louisa, VA, United States Lat: 38.01
Local Time: 7:52 AM EDT (11:52 GMT) Lon: -77.97
Time Zone: US/Eastern Elev: 492 ft

Show me the last for .
Show Decoded

2016-09-28 07:35 METAR KLKU 281135Z AUTO 02003KT 3/4SM BR OVC003 21/21 A2993 RMK AO2 =
2016-09-28 07:15 METAR KLKU 281115Z AUTO 36004KT 3/4SM BR OVC003 21/21 A2993 RMK AO2 =
2016-09-28 06:55 METAR KLKU 281055Z AUTO 36003KT 2 1/2SM BR OVC003 21/21 A2993 RMK AO2 =
2016-09-28 06:35 METAR KLKU 281035Z AUTO 36004KT 2SM BR OVC003 22/21 A2992 RMK AO2 =
2016-09-28 06:15 METAR KLKU 281015Z AUTO 00000KT 4SM BR OVC003 22/21 A2992 RMK AO2 =
2016-09-28 05:55 METAR KLKU 280955Z AUTO 00000KT 5SM BR BKN003 OVC012 22/21 A2992 RMK AO2 =
2016-09-28 05:35 METAR KLKU 280935Z AUTO 00000KT 2 1/2SM -DZ BKN003 OVC012 22/21 A2992 RMK AO2 =
2016-09-28 05:15 METAR KLKU 280915Z AUTO 11003KT 1 1/4SM -RA OVC001 22/21 A2992 RMK AO2 =
2016-09-28 04:55 METAR KLKU 280855Z AUTO 00000KT 1 3/4SM BR OVC001 22/21 A2991 RMK AO2 =
2016-09-28 04:35 METAR KLKU 280835Z AUTO 12003KT 2SM BR OVC001 22/21 A2991 RMK AO2 =
2016-09-28 04:15 METAR KLKU 280815Z AUTO 11004KT 1 1/2SM BR OVC001 22/21 A2991 RMK AO2 =
2016-09-28 03:55 METAR KLKU 280755Z AUTO 12005KT 1SM BR OVC001 22/21 A2992 RMK AO2 =
2016-09-28 03:35 METAR KLKU 280735Z AUTO 13004KT 1SM BR OVC001 22/21 A2991 RMK AO2 =
2016-09-28 03:15 METAR KLKU 280715Z AUTO 11004KT 3/4SM BR OVC001 22/21 A2992 RMK AO2 =
2016-09-28 02:55 METAR KLKU 280655Z AUTO 09004KT 3/4SM BR OVC003 22/21 A2992 RMK AO2 =
2016-09-28 02:35 METAR KLKU 280635Z AUTO 09004KT 1 1/4SM BR OVC003 22/21 A2992 RMK AO2 =
2016-09-28 02:15 METAR KLKU 280615Z AUTO 00000KT 3SM BR OVC003 22/21 A2992 RMK AO2 =
2016-09-28 01:55 METAR KLKU 280555Z AUTO 00000KT 4SM BR SCT003 OVC010 21/21 A2992 RMK AO2 =
2016-09-28 01:35 METAR KLKU 280535Z AUTO 07003KT 3SM BR SCT003 OVC012 21/21 A2992 RMK AO2 =
2016-09-28 01:15 METAR KLKU 280515Z AUTO 00000KT 4SM BR BKN008 OVC012 21/21 A2993 RMK AO2 =
2016-09-28 00:55 METAR KLKU 280455Z AUTO 00000KT 4SM BR SCT003 OVC008 21/21 A2994 RMK AO2 =
2016-09-28 00:35 METAR KLKU 280435Z AUTO 00000KT 4SM BR BKN003 OVC008 21/21 A2994 RMK AO2 =
2016-09-28 00:15 METAR KLKU 280415Z AUTO 00000KT 4SM BR BKN005 OVC008 21/21 A2993 RMK AO2 =
2016-09-27 23:55 METAR KLKU 280355Z AUTO 00000KT 4SM BR OVC005 21/21 A2993 RMK AO2 =
2016-09-27 23:35 METAR KLKU 280335Z AUTO 00000KT 4SM BR BKN003 OVC007 21/21 A2993 RMK AO2 =
2016-09-27 23:15 METAR KLKU 280315Z AUTO 00000KT 4SM BR OVC005 21/21 A2993 RMK AO2 =
2016-09-27 22:55 METAR KLKU 280255Z AUTO 00000KT 4SM BR OVC005 21/20 A2992 RMK AO2 =
2016-09-27 22:35 METAR KLKU 280235Z AUTO 08003KT 4SM BR OVC003 21/20 A2992 RMK AO2 =
2016-09-27 22:15 METAR KLKU 280215Z AUTO 00000KT 5SM BR BKN005 OVC011 21/20 A2993 RMK AO2 =
2016-09-27 21:55 METAR KLKU 280155Z AUTO 00000KT 5SM BR OVC013 21/20 A2992 RMK AO2 =
2016-09-27 21:35 METAR KLKU 280135Z AUTO 08003KT 7SM OVC013 21/20 A2992 RMK AO2 =
2016-09-27 21:15 METAR KLKU 280115Z AUTO 00000KT 7SM OVC013 21/20 A2992 RMK AO2 =
2016-09-27 20:55 METAR KLKU 280055Z AUTO 00000KT 7SM BKN015 21/19 A2992 RMK AO2 =
2016-09-27 20:35 METAR KLKU 280035Z AUTO 00000KT 7SM SCT015 21/19 A2991 RMK AO2 =
2016-09-27 20:15 METAR KLKU 280015Z AUTO 11004KT 10SM SCT015 21/20 A2990 RMK AO2 =
2016-09-27 19:55 METAR KLKU 272355Z AUTO 12003KT 10SM CLR 21/19 A2990 RMK AO2 =
2016-09-27 19:35 METAR KLKU 272335Z AUTO 10003KT 10SM CLR 21/20 A2990 RMK AO2 =
2016-09-27 19:15 METAR KLKU 272315Z AUTO 11003KT 10SM CLR 21/20 A2990 RMK AO2 =
2016-09-27 18:55 METAR KLKU 272255Z AUTO 00000KT 10SM CLR 22/20 A2990 RMK AO2 =
2016-09-27 18:35 METAR KLKU 272235Z AUTO 10003KT 10SM SCT019 22/20 A2989 RMK AO2 =
2016-09-27 18:15 METAR KLKU 272215Z AUTO 10003KT 10SM CLR 23/20 A2989 RMK AO2 =
2016-09-27 17:55 METAR KLKU 272155Z AUTO 09003KT 10SM SCT027 23/20 A2988 RMK AO2 =
2016-09-27 17:35 METAR KLKU 272135Z AUTO 10005KT 10SM BKN023 24/20 A2989 RMK AO2 =
2016-09-27 17:15 METAR KLKU 272115Z AUTO 07005KT 10SM OVC023 25/20 A2988 RMK AO2 =
2016-09-27 16:55 METAR KLKU 272055Z AUTO 17003KT 10SM BKN025 26/20 A2988 RMK AO2 =
2016-09-27 16:35 METAR KLKU 272035Z AUTO 09003KT 10SM SCT025 24/20 A2988 RMK AO2 =
2016-09-27 16:15 METAR KLKU 272015Z AUTO 11003KT 10SM CLR 25/19 A2989 RMK AO2 =
2016-09-27 15:55 METAR KLKU 271955Z AUTO 07003KT 10SM SCT023 25/19 A2989 RMK AO2 =
2016-09-27 15:35 METAR KLKU 271935Z AUTO 12004KT 10SM SCT023 25/19 A2990 RMK AO2 =
2016-09-27 15:15 METAR KLKU 271915Z AUTO 11003KT 10SM SCT028 24/19 A2990 RMK AO2 =
2016-09-27 14:55 METAR KLKU 271855Z AUTO 14004KT 10SM SCT019 24/19 A2991 RMK AO2 =
2016-09-27 14:35 METAR KLKU 271835Z AUTO 08004KT 10SM SCT019 BKN050 24/19 A2991 RMK AO2 =
2016-09-27 14:15 METAR KLKU 271815Z AUTO 11004KT 10SM SCT031 SCT042 BKN050 24/19 A2992 RMK AO2 =
2016-09-27 13:55 METAR KLKU 271755Z AUTO 13005KT 10SM BKN031 23/19 A2994 RMK AO2 =
2016-09-27 13:35 METAR KLKU 271735Z AUTO 11004KT 10SM SCT017 OVC029 23/19 A2994 RMK AO2 =
2016-09-27 13:15 METAR KLKU 271715Z AUTO 00000KT 10SM SCT019 OVC027 22/19 A2995 RMK AO2 =
2016-09-27 12:55 METAR KLKU 271655Z AUTO 08005KT 10SM BKN017 OVC029 22/18 A2996 RMK AO2 =
2016-09-27 12:35 METAR KLKU 271635Z AUTO 09004KT 10SM OVC017 22/18 A2996 RMK AO2 =
2016-09-27 12:15 METAR KLKU 271615Z AUTO 08003KT 10SM OVC017 22/18 A2997 RMK AO2 =
2016-09-27 11:55 METAR KLKU 271555Z AUTO 07004KT 10SM OVC017 22/18 A2996 RMK AO2 =
2016-09-27 11:35 METAR KLKU 271535Z AUTO 09005KT 10SM OVC019 22/17 A2996 RMK AO2 =
2016-09-27 11:15 METAR KLKU 271515Z AUTO 11005KT 10SM OVC019 22/18 A2998 RMK AO2 =
2016-09-27 10:55 METAR KLKU 271455Z AUTO 09004KT 10SM OVC019 21/18 A2999 RMK AO2 =
2016-09-27 10:35 METAR KLKU 271435Z AUTO 05003KT 10SM OVC017 21/18 A2999 RMK AO2 =
2016-09-27 10:15 METAR KLKU 271415Z AUTO 04003KT 10SM OVC015 20/18 A2999 RMK AO2 =
2016-09-27 09:55 METAR KLKU 271355Z AUTO 03004KT 10SM OVC011 19/18 A2998 RMK AO2 =
2016-09-27 09:35 METAR KLKU 271335Z AUTO 04004KT 5SM BR BKN003 OVC011 19/19 A2998 RMK AO2 =
2016-09-27 09:15 METAR KLKU 271315Z AUTO 04005KT 3SM BR OVC003 21/21 A2997 RMK AO2 =
2016-09-27 08:55 METAR KLKU 271255Z AUTO 00000KT 2 1/2SM BR OVC003 21/21 A2997 RMK AO2 VIS 1
                 1/4V5 =
2016-09-27 08:35 METAR KLKU 271235Z AUTO 00000KT 2 1/2SM BR OVC003 21/21 A2997 RMK AO2 =
2016-09-27 08:15 METAR KLKU 271215Z AUTO 00000KT 2 1/2SM BR OVC003 21/21 A2997 RMK AO2 =
2016-09-27 07:55 METAR KLKU 271155Z AUTO 00000KT 2 1/2SM BR OVC003 21/21 A2996 RMK AO2 =

Support USWX by starting your Amazon purchase here.